Time;durP1;ratioP1;P1;durP2;ratioP2;P2;SDS_P1;SDS_P2;PMS_P1;PMS_P2;Temp;Humidity;BMP_temperature;BMP_pressure;BME280_temperature;BME280_humidity;BME280_pressure;Samples;Min_cycle;Max_cycle;Signal;HPM_P1;HPM_P2
2022/06/21 00:07:37;;;;;;;6.70;3.40;;;;;;;26.36;52.85;99732.09;18424125;32;20096;-67
2022/06/21 00:17:45;;;;;;;5.28;2.50;;;;;;;26.36;53.87;99729.41;18423710;32;20089;-67
2022/06/21 00:27:48;;;;;;;4.03;1.90;;;;;;;25.90;49.48;99702.66;18423253;32;20437;-67
2022/06/21 00:37:54;;;;;;;2.72;1.70;;;;;;;26.22;46.09;99708.28;18423012;32;20093;-66
2022/06/21 00:47:59;;;;;;;2.92;1.70;;;;;;;25.88;43.84;99693.03;18423218;32;20081;-66
2022/06/21 00:58:05;;;;;;;3.33;1.58;;;;;;;25.60;44.77;99711.22;18475154;31;20111;-66
2022/06/21 01:08:10;;;;;;;5.57;1.30;;;;;;;25.44;44.00;99727.53;18420930;31;20107;-66
2022/06/21 01:18:18;;;;;;;3.92;1.60;;;;;;;25.45;43.41;99726.56;18474619;31;20141;-66
2022/06/21 01:28:23;;;;;;;4.75;1.80;;;;;;;25.62;43.58;99715.47;18420589;32;20104;-66
2022/06/21 01:38:29;;;;;;;5.60;2.00;;;;;;;25.14;46.08;99747.56;18420522;32;20508;-66
2022/06/21 01:48:36;;;;;;;3.95;1.77;;;;;;;24.98;47.19;99764.69;18419935;32;20115;-66
2022/06/21 01:58:43;;;;;;;4.78;1.85;;;;;;;24.79;47.83;99759.81;18419843;31;20088;-66
2022/06/21 02:08:50;;;;;;;5.15;2.00;;;;;;;24.45;48.46;99749.72;18419041;32;20107;-66
2022/06/21 02:18:55;;;;;;;3.35;1.55;;;;;;;23.71;51.51;99761.00;18434435;32;20088;-65
2022/06/21 02:29:00;;;;;;;2.87;1.42;;;;;;;23.75;49.01;99753.66;18439079;32;20097;-66
2022/06/21 02:39:06;;;;;;;3.03;1.70;;;;;;;23.44;49.60;99747.75;18439255;32;20111;-66
2022/06/21 02:49:15;;;;;;;3.42;1.90;;;;;;;23.30;49.99;99788.59;18438449;32;20093;-66
2022/06/21 02:59:19;;;;;;;4.22;2.25;;;;;;;23.05;51.90;99814.97;18438114;32;20093;-65
2022/06/21 03:09:24;;;;;;;6.75;2.75;;;;;;;22.51;54.80;99811.22;18437505;32;20093;-65
2022/06/21 03:19:31;;;;;;;5.47;2.42;;;;;;;22.23;55.41;99849.22;18438144;32;20088;-66
2022/06/21 03:29:36;;;;;;;3.85;1.80;;;;;;;21.87;55.04;99862.81;18428915;32;20111;-66
2022/06/21 03:50:04;;;;;;;2.90;1.43;;;;;;;22.16;52.37;99921.38;18424895;32;20089;-65
2022/06/21 04:00:11;;;;;;;2.17;1.20;;;;;;;21.97;51.26;99905.62;18424433;31;20426;-65
2022/06/21 04:10:18;;;;;;;1.95;1.30;;;;;;;21.53;50.75;99940.84;18450730;31;20361;-65
2022/06/21 04:20:25;;;;;;;1.87;1.15;;;;;;;21.98;47.08;99952.50;18423825;32;20085;-66
2022/06/21 04:30:35;;;;;;;1.70;1.10;;;;;;;21.61;44.40;99934.16;18423142;32;20096;-66
2022/06/21 04:40:41;;;;;;;1.27;0.82;;;;;;;23.19;39.82;99946.31;18422711;32;20137;-66
2022/06/21 04:50:48;;;;;;;1.02;0.68;;;;;;;23.81;35.01;99943.28;18422402;32;20085;-66
2022/06/21 05:00:52;;;;;;;0.88;0.65;;;;;;;24.83;32.98;99952.63;18422061;32;20093;-66
2022/06/21 05:10:59;;;;;;;0.50;0.50;;;;;;;24.17;34.04;99959.66;18421437;32;20081;-65
2022/06/21 05:21:04;;;;;;;0.77;0.62;;;;;;;23.59;31.99;99985.59;18421268;32;20103;-66
2022/06/21 05:31:14;;;;;;;1.15;0.60;;;;;;;24.60;32.05;99984.41;18420614;32;20093;-66
2022/06/21 05:41:32;;;;;;;0.63;0.60;;;;;;;25.25;30.67;99987.13;18420779;31;20092;-66
2022/06/21 05:51:37;;;;;;;1.25;0.62;;;;;;;24.03;30.46;100011.19;18415413;32;20093;-66
2022/06/21 06:01:44;;;;;;;0.98;0.60;;;;;;;23.18;30.36;100025.31;18415513;32;20107;-65
2022/06/21 06:12:00;;;;;;;1.33;0.52;;;;;;;23.64;31.97;100031.44;18417174;32;20470;-66
2022/06/21 06:22:20;;;;;;;0.98;0.65;;;;;;;23.22;30.91;100028.66;18415885;31;20087;-65
2022/06/21 06:32:31;;;;;;;0.90;0.68;;;;;;;22.72;31.27;100050.25;18455958;31;20141;-67
2022/06/21 06:42:38;;;;;;;0.60;0.60;;;;;;;23.24;30.47;100064.91;18362188;32;20089;-67
2022/06/21 06:52:45;;;;;;;0.60;0.60;;;;;;;23.29;31.77;100062.00;18353169;32;20123;-66
2022/06/21 07:02:51;;;;;;;1.12;0.60;;;;;;;23.45;32.76;100079.69;18406518;32;20369;-66
2022/06/21 07:12:56;;;;;;;1.17;0.80;;;;;;;24.33;29.33;100079.53;18381850;32;20094;-66
2022/06/21 07:23:00;;;;;;;2.05;0.90;;;;;;;25.58;28.51;100080.09;18363332;32;20131;-66
2022/06/21 07:33:08;;;;;;;1.62;0.60;;;;;;;25.75;28.56;100102.09;18361028;32;20115;-67
2022/06/21 07:43:16;;;;;;;3.12;0.93;;;;;;;26.65;27.42;100113.50;18446782;31;20122;-66
2022/06/21 07:53:27;;;;;;;1.87;0.80;;;;;;;26.12;28.04;100122.66;18407941;32;20089;-66
2022/06/21 08:13:57;;;;;;;1.83;0.75;;;;;;;25.56;28.71;100121.22;18421891;32;20093;-66
2022/06/21 08:24:04;;;;;;;2.00;0.80;;;;;;;25.59;29.23;100131.72;18427054;31;80513;-66
2022/06/21 08:34:13;;;;;;;3.85;0.60;;;;;;;26.40;27.02;100121.53;18386802;32;20089;-67
2022/06/21 08:55:39;;;;;;;0.80;0.60;;;;;;;24.96;27.85;100128.84;18387777;32;20080;-66
2022/06/21 09:05:53;;;;;;;0.60;0.60;;;;;;;25.52;27.85;100122.41;18410786;31;20162;-66
2022/06/21 09:16:03;;;;;;;1.30;0.82;;;;;;;25.55;28.85;100125.75;18357113;32;20127;-66
2022/06/21 09:26:10;;;;;;;;;;;;;;;26.35;27.09;100120.16;18356546;32;20162;-67
2022/06/21 09:36:30;;;;;;;1.75;0.82;;;;;;;26.72;26.99;100110.25;18438987;31;19976;-66
2022/06/21 09:46:46;;;;;;;0.68;0.60;;;;;;;26.70;26.65;100114.87;18381429;32;20093;-65
2022/06/21 09:56:53;;;;;;;1.70;0.68;;;;;;;27.16;26.49;100109.69;18407776;31;20092;-67
2022/06/21 10:07:06;;;;;;;3.37;0.90;;;;;;;27.18;24.47;100109.59;18418620;32;20174;-66
2022/06/21 10:17:38;;;;;;;2.20;0.85;;;;;;;27.12;24.91;100121.59;18469550;31;20161;-67
2022/06/21 10:28:03;;;;;;;3.20;0.80;;;;;;;27.03;23.76;100124.97;18406693;31;20097;-66
2022/06/21 10:38:27;;;;;;;1.70;0.50;;;;;;;27.53;25.78;100120.25;18411395;31;20103;-66
2022/06/21 10:49:10;;;;;;;0.40;0.40;;;;;;;27.13;25.20;100116.13;18415817;31;20138;-65
2022/06/21 10:59:26;;;;;;;3.62;0.73;;;;;;;27.39;24.79;100117.75;18348839;32;20125;-66
2022/06/21 11:09:33;;;;;;;0.85;0.40;;;;;;;28.19;25.70;100112.47;18361599;32;20121;-66
2022/06/21 11:19:46;;;;;;;0.55;0.55;;;;;;;28.09;24.98;100120.38;18380476;32;20109;-66
2022/06/21 11:29:57;;;;;;;1.45;0.60;;;;;;;28.43;25.01;100135.56;18425206;32;20106;-66
2022/06/21 11:40:09;;;;;;;1.42;0.75;;;;;;;28.15;22.87;100140.47;18479499;31;20109;-66
2022/06/21 11:50:18;;;;;;;0.70;0.55;;;;;;;28.28;24.46;100135.87;18477411;31;20145;-66
2022/06/21 12:00:31;;;;;;;1.15;0.70;;;;;;;28.45;25.01;100136.28;18476854;31;20104;-65
2022/06/21 12:10:45;;;;;;;1.73;0.70;;;;;;;28.42;24.38;100131.19;18457972;31;20085;-67
2022/06/21 12:20:53;;;;;;;0.52;0.52;;;;;;;29.02;22.54;100125.34;18476776;31;20175;-67
2022/06/21 12:30:57;;;;;;;1.27;0.77;;;;;;;28.63;23.26;100134.78;18476100;31;20093;-66
2022/06/21 12:41:16;;;;;;;2.62;0.80;;;;;;;28.91;24.16;100115.53;18422431;32;20097;-66
2022/06/21 12:51:28;;;;;;;0.85;0.60;;;;;;;29.60;23.92;100105.25;18422665;32;20459;-67
2022/06/21 13:01:43;;;;;;;0.98;0.65;;;;;;;28.97;22.53;100084.63;18421503;32;20100;-66
2022/06/21 13:12:02;;;;;;;1.50;0.60;;;;;;;29.37;22.38;100074.94;18461109;31;20113;-66
2022/06/21 13:22:35;;;;;;;3.47;0.80;;;;;;;28.80;22.64;100085.03;18475202;31;20571;-66
2022/06/21 13:32:43;;;;;;;2.00;0.70;;;;;;;28.64;22.94;100082.78;18421057;31;20115;-66
2022/06/21 13:42:53;;;;;;;1.87;0.90;;;;;;;29.58;21.84;100085.69;18473980;31;20112;-67
2022/06/21 13:53:01;;;;;;;2.43;0.87;;;;;;;29.08;22.77;100084.53;18473216;31;20088;-66
2022/06/21 14:03:14;;;;;;;0.93;0.53;;;;;;;28.82;22.34;100090.25;18419486;32;20139;-66
2022/06/21 14:13:23;;;;;;;3.35;0.90;;;;;;;28.63;21.86;100101.72;18418273;32;20097;-67
2022/06/21 14:23:32;;;;;;;1.83;0.70;;;;;;;28.32;21.29;100077.44;18416950;31;20162;-65
2022/06/21 14:33:39;;;;;;;0.90;0.70;;;;;;;28.34;21.92;100070.94;18418207;32;20476;-66
2022/06/21 14:43:47;;;;;;;2.37;0.57;;;;;;;27.71;22.51;100068.84;18417721;32;20085;-66
2022/06/21 14:54:15;;;;;;;2.25;0.75;;;;;;;28.11;22.99;100048.66;18417527;32;20455;-66
2022/06/21 15:04:26;;;;;;;1.20;0.60;;;;;;;27.69;23.61;100055.56;18412140;32;20108;-66
2022/06/21 15:14:33;;;;;;;1.37;0.60;;;;;;;28.17;22.61;100060.69;18352257;32;20115;-66
2022/06/21 15:24:39;;;;;;;1.30;0.60;;;;;;;27.66;22.53;100041.53;18415400;31;20169;-65
2022/06/21 15:34:47;;;;;;;1.80;1.00;;;;;;;27.14;23.54;100042.00;18422977;32;20073;-66
2022/06/21 15:44:55;;;;;;;2.45;1.10;;;;;;;26.74;24.59;100036.00;18425221;32;20089;-65
2022/06/21 15:55:03;;;;;;;0.88;0.60;;;;;;;26.59;24.06;100038.03;18477641;31;20127;-65
2022/06/21 16:05:18;;;;;;;1.42;0.90;;;;;;;26.34;24.58;100047.06;18425176;32;20102;-65
2022/06/21 16:15:27;;;;;;;3.58;1.20;;;;;;;26.08;24.95;100041.78;18465650;31;20105;-66
2022/06/21 16:25:34;;;;;;;2.67;1.15;;;;;;;26.43;25.35;100048.22;18373938;32;20137;-65
2022/06/21 16:35:43;;;;;;;6.22;1.60;;;;;;;25.98;26.23;100064.81;18358584;32;20127;-65
2022/06/21 16:45:52;;;;;;;0.93;0.77;;;;;;;25.80;26.39;100089.28;18359669;32;20124;-67
2022/06/21 16:55:57;;;;;;;1.17;0.90;;;;;;;25.43;27.05;100073.97;18376605;32;20119;-65
2022/06/21 17:06:02;;;;;;;1.08;0.73;;;;;;;25.44;27.21;100086.38;18421308;32;20108;-66
2022/06/21 17:16:18;;;;;;;1.25;0.70;;;;;;;25.52;26.82;100080.53;18473277;31;20670;-65
2022/06/21 17:26:36;;;;;;;2.55;1.30;;;;;;;24.74;27.37;100076.88;18420441;31;20093;-66
2022/06/21 17:36:45;;;;;;;0.82;0.75;;;;;;;24.51;28.10;100085.44;18417578;32;20104;-66
2022/06/21 17:46:51;;;;;;;0.82;0.70;;;;;;;24.53;28.16;100078.19;18416357;32;20646;-65
2022/06/21 17:56:58;;;;;;;1.35;0.52;;;;;;;24.33;28.41;100078.66;18419586;32;20097;-66
2022/06/21 18:07:07;;;;;;;1.15;0.85;;;;;;;24.27;28.17;100084.37;18418762;32;20140;-66
2022/06/21 18:17:23;;;;;;;1.43;0.73;;;;;;;24.23;29.23;100113.91;18418921;32;20107;-66
2022/06/21 18:27:37;;;;;;;1.33;0.62;;;;;;;23.72;30.42;100149.06;18418227;32;20120;-65
2022/06/21 18:38:00;;;;;;;1.33;0.95;;;;;;;23.72;29.72;100141.06;18417380;32;20089;-66
2022/06/21 18:48:14;;;;;;;1.27;0.77;;;;;;;23.36;30.72;100147.69;18411739;31;20370;-66
2022/06/21 18:58:33;;;;;;;2.62;1.10;;;;;;;23.33;31.52;100158.53;18382947;32;20368;-65
2022/06/21 19:08:47;;;;;;;1.62;0.90;;;;;;;22.67;32.55;100166.69;18426414;32;20441;-65
2022/06/21 19:19:15;;;;;;;1.27;0.98;;;;;;;22.55;32.22;100168.28;18479198;31;20113;-66
2022/06/21 19:29:42;;;;;;;1.60;1.00;;;;;;;22.23;32.55;100169.09;18478090;31;20092;-66
2022/06/21 19:40:08;;;;;;;1.33;0.90;;;;;;;22.31;33.30;100193.47;18426650;32;20084;-65
2022/06/21 19:50:28;;;;;;;1.87;1.00;;;;;;;22.04;33.58;100195.78;18473390;31;20105;-66
2022/06/21 20:00:32;;;;;;;2.17;0.95;;;;;;;22.04;33.93;100190.47;18464107;31;20124;-67
2022/06/21 20:10:53;;;;;;;1.23;0.85;;;;;;;21.79;34.50;100198.91;18359698;32;20100;-66
2022/06/21 20:21:01;;;;;;;1.60;1.00;;;;;;;21.03;36.67;100198.25;18360150;32;20146;-65
2022/06/21 20:31:08;;;;;;;1.25;1.05;;;;;;;20.43;38.08;100199.31;18430949;31;20122;-65
2022/06/21 20:41:15;;;;;;;1.67;1.10;;;;;;;20.42;38.43;100198.44;18417990;32;20093;-65
2022/06/21 20:51:21;;;;;;;1.20;1.05;;;;;;;20.20;38.46;100182.66;18389485;32;20117;-66
2022/06/21 21:01:27;;;;;;;1.23;1.10;;;;;;;20.33;38.79;100177.66;18387610;32;20097;-66
2022/06/21 21:11:32;;;;;;;1.10;1.00;;;;;;;20.31;39.08;100187.47;18387994;32;20108;-66
2022/06/21 21:21:39;;;;;;;1.98;1.33;;;;;;;20.14;39.45;100161.75;18366932;32;20092;-66
2022/06/21 21:32:30;;;;;;;3.12;1.20;;;;;;;19.90;39.79;100160.13;18410012;31;20089;-66
2022/06/21 21:42:44;;;;;;;1.27;1.17;;;;;;;19.95;40.22;100183.78;18408284;32;20117;-66
2022/06/21 21:52:52;;;;;;;2.92;1.12;;;;;;;20.26;39.84;100187.69;18420679;32;20113;-65
2022/06/21 22:03:00;;;;;;;1.67;1.30;;;;;;;20.53;39.47;100179.37;18407659;32;20456;-66
2022/06/21 22:13:11;;;;;;;1.27;1.10;;;;;;;19.01;43.71;100186.00;18396815;32;20093;-66
2022/06/21 22:23:18;;;;;;;2.77;1.57;;;;;;;18.41;45.34;100198.84;18355069;32;20115;-66
2022/06/21 22:33:24;;;;;;;1.25;1.15;;;;;;;18.22;46.46;100203.09;18359544;32;20406;-66
2022/06/21 22:43:30;;;;;;;2.62;1.58;;;;;;;17.93;48.07;100200.56;18363977;32;20116;-66
2022/06/21 22:53:37;;;;;;;2.58;1.27;;;;;;;17.24;51.00;100246.87;18363171;32;20096;-66
2022/06/21 23:03:44;;;;;;;2.50;1.35;;;;;;;18.13;48.28;100231.56;18363239;32;20137;-65
2022/06/21 23:13:53;;;;;;;2.83;1.62;;;;;;;15.73;55.13;100237.16;18367459;32;20111;-65
2022/06/21 23:23:59;;;;;;;3.28;1.70;;;;;;;16.16;54.28;100230.75;18391315;31;20182;-66
2022/06/21 23:34:04;;;;;;;3.50;1.50;;;;;;;16.70;52.61;100215.16;18398915;32;20112;-65
2022/06/21 23:44:14;;;;;;;3.05;1.70;;;;;;;16.10;54.63;100209.84;18428635;31;20153;-66
2022/06/21 23:54:19;;;;;;;4.22;1.55;;;;;;;16.67;53.29;100175.69;18365339;32;20138;-65
